Time;durP1;ratioP1;P1;durP2;ratioP2;P2;SDS_P1;SDS_P2;PMS_P1;PMS_P2;Temp;Humidity;BMP_temperature;BMP_pressure;BME280_temperature;BME280_humidity;BME280_pressure;Samples;Min_cycle;Max_cycle;Signal;HPM_P1;HPM_P2
2022/10/10 00:00:50;;;;;;;20.35;12.30;;;;;;;11.79;100.00;98395.28;5076665;28;20027;-81
2022/10/10 00:03:17;;;;;;;27.30;12.05;;;;;;;11.66;100.00;98388.81;5086973;28;20036;-80
2022/10/10 00:05:44;;;;;;;24.63;12.68;;;;;;;11.62;100.00;98389.91;5056554;28;20024;-81
2022/10/10 00:08:09;;;;;;;22.42;12.27;;;;;;;11.67;100.00;98399.44;5080875;28;20024;-81
2022/10/10 00:10:35;;;;;;;23.33;12.75;;;;;;;11.69;100.00;98410.09;5093402;28;20028;-80
2022/10/10 00:13:01;;;;;;;21.77;12.57;;;;;;;11.63;100.00;98399.69;5093615;28;20521;-80
2022/10/10 00:15:27;;;;;;;20.83;12.95;;;;;;;11.65;100.00;98419.22;5076586;28;20511;-81
2022/10/10 00:17:53;;;;;;;23.05;12.20;;;;;;;11.59;100.00;98407.03;5056796;28;20021;-80
2022/10/10 00:20:19;;;;;;;24.08;12.82;;;;;;;11.63;100.00;98418.47;5073278;28;20494;-80
2022/10/10 00:22:44;;;;;;;23.00;12.35;;;;;;;11.58;100.00;98413.31;5073052;28;20027;-80
2022/10/10 00:25:10;;;;;;;21.90;12.68;;;;;;;11.57;100.00;98418.75;5056368;28;20047;-80
2022/10/10 00:27:37;;;;;;;21.98;13.05;;;;;;;11.51;100.00;98411.91;5056337;28;20154;-81
2022/10/10 00:30:04;;;;;;;22.15;12.95;;;;;;;11.58;100.00;98412.44;5087024;28;20020;-81
2022/10/10 00:32:29;;;;;;;20.83;12.70;;;;;;;11.57;100.00;98422.28;5074815;28;20032;-81
2022/10/10 00:34:55;;;;;;;26.95;13.27;;;;;;;11.51;100.00;98424.41;5076892;28;20024;-80
2022/10/10 00:37:20;;;;;;;25.20;13.02;;;;;;;11.49;100.00;98431.69;5087135;28;20039;-81
2022/10/10 00:39:46;;;;;;;23.05;12.63;;;;;;;11.39;100.00;98420.56;5081078;28;20028;-82
2022/10/10 00:42:14;;;;;;;24.33;13.00;;;;;;;11.48;100.00;98424.56;5077790;28;20488;-80
2022/10/10 00:44:44;;;;;;;21.75;11.75;;;;;;;11.44;100.00;98422.06;5075810;28;20039;-81
2022/10/10 00:47:10;;;;;;;20.70;11.60;;;;;;;11.39;100.00;98415.22;5092872;28;20023;-81
2022/10/10 00:49:38;;;;;;;22.02;12.23;;;;;;;11.37;100.00;98409.94;5076199;28;20032;-81
2022/10/10 00:52:04;;;;;;;19.90;11.77;;;;;;;11.37;100.00;98412.63;5092770;28;20028;-81
2022/10/10 00:54:31;;;;;;;28.27;12.23;;;;;;;11.30;100.00;98416.56;5092797;28;20024;-82
2022/10/10 00:57:00;;;;;;;22.42;11.85;;;;;;;11.31;100.00;98417.44;5081658;28;20036;-81
2022/10/10 00:59:30;;;;;;;22.83;11.93;;;;;;;11.25;100.00;98420.41;5055809;28;20040;-81
2022/10/10 01:01:55;;;;;;;28.60;12.90;;;;;;;11.16;100.00;98418.22;5091324;28;20028;-81
2022/10/10 01:04:38;;;;;;;26.08;11.85;;;;;;;11.25;100.00;98425.78;5092883;28;20448;-81
2022/10/10 01:07:07;;;;;;;19.85;12.27;;;;;;;11.24;100.00;98429.38;5085206;28;20031;-81
2022/10/10 01:09:34;;;;;;;25.77;12.75;;;;;;;11.16;100.00;98429.78;5075148;28;20032;-82
2022/10/10 01:12:15;;;;;;;19.23;12.38;;;;;;;11.17;100.00;98439.53;5072963;28;20029;-81
2022/10/10 01:14:50;;;;;;;23.80;12.40;;;;;;;11.06;100.00;98427.63;5089024;28;20028;-81
2022/10/10 01:17:27;;;;;;;18.08;11.73;;;;;;;11.01;100.00;98429.69;5093609;28;20024;-81
2022/10/10 01:20:10;;;;;;;23.17;12.10;;;;;;;11.00;100.00;98442.19;5076596;28;20553;-81
2022/10/10 01:22:57;;;;;;;21.67;12.05;;;;;;;10.94;100.00;98434.47;5093530;28;20024;-81
2022/10/10 01:25:30;;;;;;;21.13;12.15;;;;;;;10.92;100.00;98443.53;5075335;28;20088;-82
2022/10/10 01:28:19;;;;;;;21.52;12.32;;;;;;;10.86;100.00;98444.66;5065163;28;20056;-81
2022/10/10 01:30:45;;;;;;;18.58;12.07;;;;;;;10.75;100.00;98438.97;5071757;28;20028;-82
2022/10/10 01:33:15;;;;;;;20.25;12.45;;;;;;;10.76;100.00;98451.44;5083388;28;20038;-82
2022/10/10 01:35:50;;;;;;;23.13;13.13;;;;;;;10.80;100.00;98461.88;5075271;28;20034;-82
2022/10/10 01:38:29;;;;;;;19.55;12.23;;;;;;;10.79;100.00;98460.19;5071243;28;20457;-82
2022/10/10 01:40:57;;;;;;;23.80;12.70;;;;;;;10.76;100.00;98464.81;5072308;28;20056;-82
2022/10/10 01:43:24;;;;;;;22.70;12.80;;;;;;;10.73;100.00;98455.13;5080202;28;20028;-82
2022/10/10 01:45:51;;;;;;;21.95;12.30;;;;;;;10.71;100.00;98453.44;5071505;28;20031;-81
2022/10/10 01:48:24;;;;;;;22.52;13.50;;;;;;;10.73;100.00;98460.47;5079793;28;20035;-82
2022/10/10 01:51:28;;;;;;;21.25;12.88;;;;;;;10.57;100.00;98454.09;5079669;28;20020;-82
2022/10/10 01:54:31;;;;;;;20.23;13.13;;;;;;;10.62;100.00;98462.78;5066347;28;20036;-81
2022/10/10 01:57:08;;;;;;;24.70;12.85;;;;;;;10.60;100.00;98464.66;5084271;28;20024;-81
2022/10/10 01:59:36;;;;;;;26.77;14.20;;;;;;;10.58;100.00;98463.00;5091564;28;20067;-81
2022/10/10 02:02:22;;;;;;;22.08;13.07;;;;;;;10.57;100.00;98470.16;5080892;28;20046;-82
2022/10/10 02:05:20;;;;;;;21.27;13.10;;;;;;;10.56;100.00;98463.06;5070935;28;20039;-82
2022/10/10 02:07:49;;;;;;;20.13;12.30;;;;;;;10.55;100.00;98458.63;5049733;28;20119;-82
2022/10/10 02:10:19;;;;;;;24.38;13.70;;;;;;;10.55;100.00;98445.28;5087903;28;20036;-82
2022/10/10 02:12:46;;;;;;;23.33;13.10;;;;;;;10.53;100.00;98452.50;5055913;28;20028;-82
2022/10/10 02:15:14;;;;;;;22.15;13.90;;;;;;;10.59;100.00;98457.56;5080665;28;20028;-81
2022/10/10 02:17:40;;;;;;;18.95;12.13;;;;;;;10.53;100.00;98456.97;5054241;28;20056;-81
2022/10/10 02:20:08;;;;;;;23.15;13.55;;;;;;;10.61;100.00;98460.19;5053995;28;20071;-82
2022/10/10 02:22:34;;;;;;;19.67;12.13;;;;;;;10.55;100.00;98452.44;5058436;28;20016;-82
2022/10/10 02:24:59;;;;;;;25.65;14.05;;;;;;;10.51;100.00;98459.75;5074150;28;20039;-81
2022/10/10 02:27:36;;;;;;;20.83;13.25;;;;;;;10.57;100.00;98469.28;5084564;28;20020;-81
2022/10/10 02:30:03;;;;;;;19.33;13.25;;;;;;;10.49;100.00;98466.97;5073664;28;20024;-81
2022/10/10 02:32:33;;;;;;;22.95;12.90;;;;;;;10.45;100.00;98476.09;5090727;28;20403;-81
2022/10/10 02:35:04;;;;;;;25.80;14.40;;;;;;;10.49;100.00;98482.16;5074384;28;20024;-81
2022/10/10 02:37:30;;;;;;;23.60;13.07;;;;;;;10.49;100.00;98466.97;5070457;28;20051;-80
2022/10/10 02:39:59;;;;;;;24.40;13.10;;;;;;;10.58;100.00;98482.56;5069757;28;20133;-80
2022/10/10 02:42:25;;;;;;;31.50;13.85;;;;;;;10.51;100.00;98474.94;5087266;28;20055;-80
2022/10/10 02:44:51;;;;;;;27.33;15.30;;;;;;;10.52;100.00;98490.06;5053848;28;20161;-81
2022/10/10 02:47:17;;;;;;;25.35;14.73;;;;;;;10.52;100.00;98496.25;5070409;28;20031;-81
2022/10/10 02:49:42;;;;;;;32.53;15.02;;;;;;;10.51;100.00;98488.31;5059062;28;20107;-81
2022/10/10 02:52:08;;;;;;;30.63;16.38;;;;;;;10.43;100.00;98490.47;5061670;28;20028;-81
2022/10/10 02:54:34;;;;;;;24.10;14.48;;;;;;;10.37;100.00;98488.09;5053552;28;20024;-80
2022/10/10 02:56:59;;;;;;;30.30;14.98;;;;;;;10.30;100.00;98482.16;5080538;28;20028;-81
2022/10/10 02:59:25;;;;;;;29.02;16.52;;;;;;;10.26;100.00;98478.75;5090260;28;20040;-81
2022/10/10 03:01:50;;;;;;;36.15;17.02;;;;;;;10.20;100.00;98476.34;5064520;28;20039;-81
2022/10/10 03:04:16;;;;;;;31.35;16.75;;;;;;;10.28;100.00;98484.88;5053247;28;20028;-80
2022/10/10 03:06:42;;;;;;;32.83;15.90;;;;;;;10.23;100.00;98476.22;5069916;28;20020;-81
2022/10/10 03:09:07;;;;;;;28.52;15.80;;;;;;;10.13;100.00;98490.00;5069944;28;20550;-79
2022/10/10 03:11:33;;;;;;;81.32;27.98;;;;;;;10.07;100.00;98480.47;5073242;28;20031;-81
2022/10/10 03:13:59;;;;;;;53.72;21.10;;;;;;;10.01;100.00;98486.09;5063485;28;20025;-81
2022/10/10 03:16:24;;;;;;;53.78;23.63;;;;;;;10.04;100.00;98496.66;5053142;28;20484;-81
2022/10/10 03:18:50;;;;;;;44.70;19.75;;;;;;;10.07;100.00;98495.63;5078745;28;20426;-81
2022/10/10 03:21:15;;;;;;;32.70;16.65;;;;;;;9.96;100.00;98490.78;5072946;28;20048;-80
2022/10/10 03:23:41;;;;;;;27.50;16.05;;;;;;;9.95;100.00;98493.50;5073102;28;20032;-81
2022/10/10 03:26:07;;;;;;;36.25;16.50;;;;;;;9.93;100.00;98498.94;5089912;28;20023;-82
2022/10/10 03:28:32;;;;;;;31.98;16.67;;;;;;;9.91;100.00;98498.13;5072875;28;20557;-81
2022/10/10 03:30:58;;;;;;;30.77;14.32;;;;;;;9.92;100.00;98494.53;5089690;28;20036;-82
2022/10/10 03:33:23;;;;;;;28.02;15.00;;;;;;;9.82;100.00;98494.06;5089360;28;20027;-82
2022/10/10 03:35:49;;;;;;;27.25;14.52;;;;;;;9.79;100.00;98487.97;5082230;28;20433;-82
2022/10/10 03:38:15;;;;;;;25.65;13.27;;;;;;;9.75;100.00;98494.41;5055655;28;20036;-81
2022/10/10 03:40:42;;;;;;;25.00;13.73;;;;;;;9.79;100.00;98487.97;5060627;28;20074;-82
2022/10/10 03:43:11;;;;;;;21.25;12.60;;;;;;;9.69;100.00;98482.16;5053032;28;20045;-82
2022/10/10 03:45:37;;;;;;;27.42;13.65;;;;;;;9.68;100.00;98491.13;5063838;28;20476;-82
2022/10/10 03:48:03;;;;;;;35.08;15.00;;;;;;;9.69;100.00;98489.31;5089798;28;20468;-82
2022/10/10 03:50:29;;;;;;;23.60;13.32;;;;;;;9.77;100.00;98500.53;5084040;28;20028;-81
2022/10/10 03:52:54;;;;;;;30.40;13.65;;;;;;;9.70;100.00;98491.91;5070630;28;20047;-81
2022/10/10 03:55:20;;;;;;;25.05;13.45;;;;;;;9.70;100.00;98502.59;5061418;28;20062;-80
2022/10/10 03:57:45;;;;;;;29.17;13.07;;;;;;;9.68;100.00;98500.94;5072689;28;20465;-82
2022/10/10 04:00:11;;;;;;;24.20;12.90;;;;;;;9.66;100.00;98497.44;5072875;28;20111;-82
2022/10/10 04:02:37;;;;;;;25.27;13.05;;;;;;;9.69;100.00;98508.88;5064482;28;20480;-80
2022/10/10 04:05:03;;;;;;;33.90;12.25;;;;;;;9.68;100.00;98503.59;5058665;28;20031;-82
2022/10/10 04:07:30;;;;;;;23.45;12.32;;;;;;;9.64;100.00;98507.34;5089438;28;20093;-82
2022/10/10 04:09:55;;;;;;;28.85;12.77;;;;;;;9.61;100.00;98497.66;5064376;28;20024;-82
2022/10/10 04:12:21;;;;;;;25.50;12.52;;;;;;;9.67;100.00;98509.88;5081120;28;20484;-82
2022/10/10 04:14:47;;;;;;;32.90;13.82;;;;;;;9.66;100.00;98500.13;5064086;28;20525;-81
2022/10/10 04:17:12;;;;;;;37.92;14.60;;;;;;;9.61;100.00;98491.44;5068701;28;20404;-80
2022/10/10 04:19:38;;;;;;;35.92;14.10;;;;;;;9.65;100.00;98506.41;5052482;28;20237;-83
2022/10/10 04:22:03;;;;;;;30.08;15.07;;;;;;;9.67;100.00;98507.22;5072711;28;20051;-84
2022/10/10 04:24:29;;;;;;;39.67;16.35;;;;;;;9.65;100.00;98522.44;5072869;28;20031;-80
2022/10/10 04:26:55;;;;;;;145.80;51.00;;;;;;;9.58;100.00;98515.59;5059230;28;20029;-87
2022/10/10 04:29:20;;;;;;;40.35;18.15;;;;;;;9.53;100.00;98510.47;5082233;28;20392;-88
2022/10/10 04:31:46;;;;;;;36.30;16.65;;;;;;;9.54;100.00;98519.34;5071060;28;20222;-81
2022/10/10 04:34:11;;;;;;;31.92;14.93;;;;;;;9.49;100.00;98505.31;5067601;28;20480;-82
2022/10/10 04:36:37;;;;;;;41.08;15.85;;;;;;;9.61;100.00;98527.03;5069104;28;20089;-83
2022/10/10 04:39:03;;;;;;;28.80;15.07;;;;;;;9.52;100.00;98522.09;5054200;28;20025;-83
2022/10/10 04:41:28;;;;;;;50.95;19.92;;;;;;;9.54;100.00;98522.00;5058784;28;20470;-83
2022/10/10 04:43:54;;;;;;;34.25;18.60;;;;;;;9.54;100.00;98517.53;5058967;28;20093;-83
2022/10/10 04:46:19;;;;;;;61.15;22.67;;;;;;;9.63;100.00;98526.97;5078449;28;20429;-81
2022/10/10 04:48:45;;;;;;;47.08;23.15;;;;;;;9.56;100.00;98517.50;5073731;28;20032;-81
2022/10/10 04:51:12;;;;;;;61.38;28.63;;;;;;;9.68;100.00;98530.31;5083993;28;20024;-81
2022/10/10 04:53:37;;;;;;;54.78;24.02;;;;;;;9.66;100.00;98521.47;5067481;28;20118;-81
2022/10/10 04:56:03;;;;;;;56.40;25.35;;;;;;;9.58;100.00;98510.28;5070768;28;20111;-82
2022/10/10 04:58:29;;;;;;;43.70;20.60;;;;;;;9.67;100.00;98528.56;5070416;28;20033;-82
2022/10/10 05:00:55;;;;;;;63.92;26.73;;;;;;;9.76;100.00;98536.19;5064707;28;20138;-82
2022/10/10 05:03:21;;;;;;;49.88;21.45;;;;;;;9.80;100.00;98545.81;5055630;28;20046;-81
2022/10/10 05:05:47;;;;;;;44.58;18.88;;;;;;;9.87;100.00;98544.63;5055394;28;20028;-81
2022/10/10 05:08:13;;;;;;;48.85;19.77;;;;;;;9.87;100.00;98535.75;5078095;28;20452;-82
2022/10/10 05:10:38;;;;;;;44.20;16.38;;;;;;;9.88;100.00;98538.34;5066566;28;20031;-82
2022/10/10 05:13:05;;;;;;;33.63;16.20;;;;;;;10.13;100.00;98546.16;5063693;28;20031;-82
2022/10/10 05:15:34;;;;;;;35.47;16.42;;;;;;;10.13;100.00;98536.38;5058230;28;20421;-82
2022/10/10 05:18:00;;;;;;;36.55;16.85;;;;;;;10.16;100.00;98538.91;5089425;28;20057;-82
2022/10/10 05:20:25;;;;;;;34.45;15.27;;;;;;;10.44;100.00;98548.34;5080016;28;20060;-81
2022/10/10 05:22:51;;;;;;;26.35;14.85;;;;;;;10.74;100.00;98544.28;5065452;28;20115;-81
2022/10/10 05:25:16;;;;;;;30.55;14.52;;;;;;;10.75;100.00;98519.25;5069985;28;20466;-82
2022/10/10 05:27:42;;;;;;;45.58;22.92;;;;;;;10.87;100.00;98522.22;5071808;28;20484;-83
2022/10/10 05:30:08;;;;;;;63.63;34.10;;;;;;;10.93;100.00;98521.06;5061911;28;20455;-82
2022/10/10 05:32:34;;;;;;;72.90;42.00;;;;;;;10.93;100.00;98517.50;5066857;28;20087;-81
2022/10/10 05:34:59;;;;;;;96.55;52.42;;;;;;;10.94;100.00;98512.09;5061266;28;20024;-82
2022/10/10 05:37:25;;;;;;;57.47;33.60;;;;;;;11.04;100.00;98523.22;5086371;28;20024;-81
2022/10/10 05:39:50;;;;;;;34.00;18.58;;;;;;;10.95;100.00;98513.81;5075462;28;20024;-82
2022/10/10 05:42:16;;;;;;;44.60;18.15;;;;;;;11.29;100.00;98538.03;5058914;28;20095;-82
2022/10/10 05:44:41;;;;;;;25.70;16.35;;;;;;;11.53;100.00;98535.97;5086951;28;20426;-81
2022/10/10 05:47:07;;;;;;;38.72;18.90;;;;;;;11.79;100.00;98540.88;5060405;28;20024;-82
2022/10/10 05:49:33;;;;;;;50.15;25.60;;;;;;;12.48;100.00;98551.59;5059077;28;20483;-83
2022/10/10 05:51:58;;;;;;;52.97;26.42;;;;;;;13.29;100.00;98561.44;5058918;28;20059;-82
2022/10/10 05:54:24;;;;;;;62.08;31.38;;;;;;;14.22;100.00;98559.50;5059034;28;20032;-82
2022/10/10 05:56:49;;;;;;;60.75;32.20;;;;;;;14.98;100.00;98523.34;5062146;28;20134;-82
2022/10/10 05:59:15;;;;;;;56.80;29.50;;;;;;;15.62;97.40;98495.75;5088732;28;20028;-82
2022/10/10 06:01:40;;;;;;;61.10;26.08;;;;;;;15.88;93.79;98470.56;5056567;28;20464;-82
2022/10/10 06:04:06;;;;;;;51.95;23.25;;;;;;;16.90;87.55;98457.94;5068897;28;20028;-83
2022/10/10 06:06:32;;;;;;;52.60;22.27;;;;;;;18.12;79.93;98445.06;5089137;28;20105;-83
2022/10/10 06:08:58;;;;;;;49.63;19.00;;;;;;;18.87;75.02;98405.56;5066557;28;20028;-82
2022/10/10 06:11:24;;;;;;;56.63;21.58;;;;;;;19.02;72.04;98360.03;5066158;28;20028;-80
2022/10/10 06:13:53;;;;;;;41.08;19.05;;;;;;;19.37;70.83;98363.38;5062090;28;20023;-81
2022/10/10 06:16:23;;;;;;;37.67;18.23;;;;;;;19.96;68.83;98352.88;5055368;28;20028;-82
2022/10/10 06:18:49;;;;;;;35.53;18.17;;;;;;;20.61;65.89;98344.31;5061248;28;20483;-81
2022/10/10 06:21:15;;;;;;;42.78;18.15;;;;;;;21.10;64.85;98334.47;5063919;28;20036;-82
2022/10/10 06:23:41;;;;;;;30.38;15.93;;;;;;;21.85;62.85;98318.22;5059857;28;20028;-82
2022/10/10 06:26:07;;;;;;;34.65;16.25;;;;;;;22.33;60.91;98302.66;5069203;28;20399;-82
2022/10/10 06:28:34;;;;;;;39.33;16.25;;;;;;;22.62;59.36;98287.00;5071280;28;20024;-82
2022/10/10 06:31:01;;;;;;;29.90;15.52;;;;;;;22.48;60.21;98283.91;5062598;28;20035;-85
2022/10/10 06:33:26;;;;;;;43.15;19.08;;;;;;;22.78;59.36;98271.84;5070872;28;20031;-82
2022/10/10 06:35:52;;;;;;;35.10;17.08;;;;;;;21.96;60.97;98258.19;5082139;28;20031;-82
2022/10/10 06:38:18;;;;;;;32.30;17.52;;;;;;;20.44;65.70;98260.72;5066343;28;20384;-83
2022/10/10 06:40:44;;;;;;;40.65;19.35;;;;;;;20.86;64.85;98256.78;5074181;28;20105;-83
2022/10/10 06:43:11;;;;;;;38.20;21.50;;;;;;;20.52;65.58;98236.41;5070015;28;20403;-81
2022/10/10 06:45:37;;;;;;;45.20;22.45;;;;;;;20.07;67.67;98246.81;5082956;28;20029;-83
2022/10/10 06:48:03;;;;;;;46.67;23.98;;;;;;;19.15;71.03;98235.97;5067101;28;20024;-83
2022/10/10 06:50:29;;;;;;;42.20;20.63;;;;;;;19.04;72.75;98241.47;5074447;28;20415;-83
2022/10/10 06:52:55;;;;;;;43.50;18.60;;;;;;;19.04;74.09;98255.03;5071594;28;20025;-83
2022/10/10 06:55:20;;;;;;;40.22;17.45;;;;;;;19.46;72.77;98245.94;5054075;28;20063;-83
2022/10/10 06:57:46;;;;;;;31.33;18.27;;;;;;;19.56;72.65;98249.59;5066732;28;20028;-81
2022/10/10 07:00:12;;;;;;;30.67;18.23;;;;;;;20.08;70.70;98258.56;5088135;28;20476;-82
2022/10/10 07:02:39;;;;;;;33.75;16.40;;;;;;;20.21;69.76;98248.31;5086785;28;20408;-81
2022/10/10 07:05:10;;;;;;;37.40;17.95;;;;;;;20.46;69.30;98253.28;5062084;28;20028;-84
2022/10/10 07:07:37;;;;;;;28.27;16.67;;;;;;;21.01;67.29;98249.91;5061105;28;20036;-83
2022/10/10 07:10:03;;;;;;;30.42;17.25;;;;;;;21.78;64.41;98247.13;5079742;28;20020;-84
2022/10/10 07:12:28;;;;;;;38.00;17.45;;;;;;;22.11;63.09;98252.09;5081644;28;20037;-83
2022/10/10 07:14:54;;;;;;;27.58;16.33;;;;;;;22.18;62.43;98229.69;5074107;28;20415;-84
2022/10/10 07:17:20;;;;;;;25.05;15.52;;;;;;;22.78;61.07;98234.53;5074358;28;20090;-83
2022/10/10 07:19:45;;;;;;;26.38;16.38;;;;;;;22.29;62.04;98240.38;5090319;28;20023;-83
2022/10/10 07:22:11;;;;;;;26.70;15.90;;;;;;;20.73;65.73;98226.31;5082604;28;20472;-83
2022/10/10 07:24:36;;;;;;;21.05;14.48;;;;;;;21.29;65.16;98237.34;5080572;28;20028;-82
2022/10/10 07:27:03;;;;;;;23.75;14.60;;;;;;;21.69;63.86;98231.69;5076269;28;20020;-83
2022/10/10 07:29:29;;;;;;;25.42;13.32;;;;;;;21.90;63.04;98220.63;5073392;28;20092;-82
2022/10/10 07:31:55;;;;;;;21.58;12.13;;;;;;;22.12;62.01;98221.09;5082533;28;20111;-83
2022/10/10 07:34:39;;;;;;;16.88;11.07;;;;;;;22.30;62.28;98223.03;5070748;28;20042;-84
2022/10/10 07:37:05;;;;;;;22.02;11.48;;;;;;;22.10;62.59;98223.13;5087575;28;20024;-83
2022/10/10 07:39:30;;;;;;;18.65;11.30;;;;;;;22.59;61.24;98231.88;5065265;28;20483;-82
2022/10/10 07:41:56;;;;;;;41.80;12.20;;;;;;;22.83;59.88;98204.03;5060916;28;20051;-81
2022/10/10 07:44:25;;;;;;;21.55;12.02;;;;;;;22.66;60.33;98211.22;5061028;28;20039;-81
2022/10/10 07:46:50;;;;;;;22.60;12.25;;;;;;;21.69;62.79;98195.44;5064986;28;20031;-81
2022/10/10 07:49:16;;;;;;;19.45;12.23;;;;;;;21.79;63.35;98201.69;5081268;28;20028;-81
2022/10/10 07:51:41;;;;;;;20.83;11.85;;;;;;;22.03;62.89;98211.09;5061689;28;20028;-81
2022/10/10 07:54:08;;;;;;;17.05;10.52;;;;;;;22.40;61.27;98219.22;5066816;28;20059;-81
2022/10/10 07:56:34;;;;;;;15.98;9.85;;;;;;;22.67;60.47;98210.19;5086717;28;20034;-82
2022/10/10 07:58:59;;;;;;;18.92;10.68;;;;;;;22.98;59.63;98208.78;5079393;28;20032;-82
2022/10/10 08:01:25;;;;;;;15.45;10.27;;;;;;;23.14;59.65;98208.94;5081751;28;20130;-82
2022/10/10 08:03:50;;;;;;;19.92;10.48;;;;;;;24.54;55.57;98211.41;5072822;28;20031;-82
2022/10/10 08:06:17;;;;;;;17.67;9.63;;;;;;;25.13;53.80;98207.59;5081267;28;20039;-82
2022/10/10 08:08:44;;;;;;;24.00;9.10;;;;;;;25.42;52.51;98198.00;5071585;28;20085;-81
2022/10/10 08:11:09;;;;;;;13.27;9.20;;;;;;;25.26;52.89;98188.78;5085570;28;20123;-82
2022/10/10 08:13:36;;;;;;;14.25;9.13;;;;;;;25.20;52.56;98186.72;5078475;28;20099;-81
2022/10/10 08:16:03;;;;;;;16.85;9.02;;;;;;;23.57;56.36;98183.53;5061106;28;20028;-82
2022/10/10 08:18:29;;;;;;;15.52;9.77;;;;;;;23.16;57.78;98174.13;5062622;28;20036;-81
2022/10/10 08:21:03;;;;;;;21.45;9.73;;;;;;;23.89;56.36;98188.34;5073611;28;20084;-82
2022/10/10 08:23:29;;;;;;;20.23;8.63;;;;;;;24.10;55.31;98188.78;5067116;28;20094;-81
2022/10/10 08:25:58;;;;;;;20.00;8.45;;;;;;;24.22;54.53;98179.31;5079520;28;20395;-82
2022/10/10 08:28:24;;;;;;;15.35;8.55;;;;;;;22.70;57.82;98155.34;5067576;28;20024;-81
2022/10/10 08:30:50;;;;;;;13.02;7.75;;;;;;;23.63;57.96;98199.28;5066424;28;20491;-82
2022/10/10 08:33:15;;;;;;;13.95;7.45;;;;;;;24.54;54.41;98180.44;5063345;28;20040;-82
2022/10/10 08:35:41;;;;;;;20.10;7.60;;;;;;;24.77;53.47;98178.78;5064984;28;20038;-81
2022/10/10 08:38:07;;;;;;;15.70;8.85;;;;;;;24.53;54.17;98176.84;5070832;28;20218;-83
2022/10/10 08:40:34;;;;;;;13.98;8.20;;;;;;;25.04;52.46;98175.75;5090513;28;20054;-81
2022/10/10 08:43:03;;;;;;;15.07;8.48;;;;;;;24.41;53.18;98158.16;5076991;28;20020;-81
2022/10/10 08:45:30;;;;;;;14.32;8.38;;;;;;;24.34;53.71;98170.78;5069032;28;20110;-81
2022/10/10 08:48:03;;;;;;;17.42;8.80;;;;;;;24.38;53.98;98166.72;5068928;28;20558;-81
2022/10/10 08:50:28;;;;;;;9.55;7.30;;;;;;;24.36;53.34;98169.63;5064660;28;20484;-82
2022/10/10 08:53:40;;;;;;;10.48;7.10;;;;;;;24.09;54.02;98161.59;5073154;28;20103;-81
2022/10/10 08:56:06;;;;;;;19.73;8.68;;;;;;;23.40;55.76;98157.16;5037446;28;20032;-82
2022/10/10 08:58:36;;;;;;;12.57;7.93;;;;;;;23.72;55.17;98167.41;5060250;28;20484;-82
2022/10/10 09:01:08;;;;;;;16.10;8.95;;;;;;;23.77;54.70;98162.31;5093341;28;20107;-83
2022/10/10 09:03:40;;;;;;;10.30;8.13;;;;;;;24.20;54.46;98185.97;5077703;28;20031;-83
2022/10/10 09:06:12;;;;;;;11.07;8.02;;;;;;;23.87;54.34;98165.78;5084298;28;20050;-81
2022/10/10 09:08:56;;;;;;;14.77;9.38;;;;;;;24.06;54.71;98183.81;5072746;28;20111;-81
2022/10/10 09:11:57;;;;;;;16.58;8.82;;;;;;;22.84;56.81;98162.97;5081903;28;20020;-81
2022/10/10 09:14:49;;;;;;;14.05;8.63;;;;;;;23.17;57.24;98175.00;5072003;28;20040;-82
2022/10/10 09:17:30;;;;;;;;;;;;;;;22.70;57.99;98160.78;5075204;28;20049;-83
2022/10/10 09:20:06;;;;;;;14.48;8.88;;;;;;;22.67;58.44;98172.00;5072383;28;19913;-82
2022/10/10 09:22:43;;;;;;;18.20;9.60;;;;;;;23.13;57.07;98187.28;5080368;28;20116;-81
2022/10/10 09:25:22;;;;;;;18.10;9.07;;;;;;;23.99;55.55;98205.50;5055409;28;20028;-81
2022/10/10 09:28:19;;;;;;;19.23;9.60;;;;;;;24.15;54.96;98189.19;5066215;28;20033;-81
2022/10/10 09:30:49;;;;;;;20.38;10.93;;;;;;;23.07;56.91;98161.44;5047944;28;20029;-82
2022/10/10 09:33:35;;;;;;;27.55;10.65;;;;;;;24.29;55.12;98201.38;5064341;28;20031;-82
2022/10/10 09:36:03;;;;;;;17.05;10.85;;;;;;;24.90;53.10;98203.81;5067377;28;20020;-82
2022/10/10 09:38:42;;;;;;;16.08;10.80;;;;;;;24.75;52.67;98180.84;5058765;28;20429;-82
2022/10/10 09:41:24;;;;;;;16.42;10.07;;;;;;;23.43;55.74;98172.34;5076912;28;20039;-82
2022/10/10 09:43:58;;;;;;;17.02;9.90;;;;;;;23.67;55.41;98180.69;5085884;28;20029;-82
2022/10/10 09:46:24;;;;;;;23.40;10.02;;;;;;;23.27;56.56;98174.91;5092804;28;20031;-82
2022/10/10 09:48:51;;;;;;;20.60;10.13;;;;;;;22.85;57.80;98172.00;5084008;28;20024;-81
2022/10/10 09:51:18;;;;;;;16.88;10.05;;;;;;;22.66;58.41;98178.47;5092172;28;20107;-81
2022/10/10 09:53:44;;;;;;;17.00;9.35;;;;;;;23.12;58.20;98189.16;5071809;28;20029;-82
2022/10/10 09:56:25;;;;;;;16.83;9.93;;;;;;;23.75;56.17;98187.06;5072152;28;20064;-81
2022/10/10 09:58:52;;;;;;;15.18;9.20;;;;;;;23.42;56.37;98178.81;5059929;28;20020;-81
2022/10/10 10:01:22;;;;;;;24.88;9.40;;;;;;;23.26;57.96;98178.69;5066787;28;20024;-80
2022/10/10 10:04:09;;;;;;;14.70;8.80;;;;;;;24.17;55.83;98197.25;5084917;28;20169;-82
2022/10/10 10:06:35;;;;;;;12.60;7.95;;;;;;;24.69;54.44;98193.31;5081313;28;20066;-82
2022/10/10 10:09:04;;;;;;;12.07;7.80;;;;;;;25.14;53.42;98203.84;5055206;28;20028;-82
2022/10/10 10:11:34;;;;;;;13.38;7.90;;;;;;;25.80;51.52;98194.59;5088340;28;20376;-82
2022/10/10 10:14:02;;;;;;;10.45;7.55;;;;;;;26.46;50.06;98185.97;5060470;28;20020;-82
2022/10/10 10:16:32;;;;;;;11.32;7.25;;;;;;;26.48;49.87;98185.81;5083140;28;20028;-82
2022/10/10 10:18:58;;;;;;;10.05;6.95;;;;;;;26.37;50.02;98178.81;5075083;28;20016;-83
2022/10/10 10:21:23;;;;;;;15.15;6.90;;;;;;;26.09;50.01;98155.56;5058407;28;20423;-83
2022/10/10 10:24:00;;;;;;;14.50;7.13;;;;;;;26.67;48.94;98177.13;5080177;28;20467;-83
2022/10/10 10:26:46;;;;;;;13.40;7.20;;;;;;;26.54;48.85;98155.75;5088329;28;20499;-83
2022/10/10 10:29:27;;;;;;;10.32;7.15;;;;;;;26.58;48.51;98148.00;5071053;28;20128;-83
2022/10/10 10:32:11;;;;;;;9.70;7.28;;;;;;;25.32;50.99;98141.53;5076121;28;20028;-83
2022/10/10 10:34:55;;;;;;;9.93;6.88;;;;;;;24.94;51.90;98127.69;5074973;28;20020;-81
2022/10/10 10:37:26;;;;;;;12.65;6.88;;;;;;;24.09;53.96;98124.19;5071223;28;20487;-82
2022/10/10 10:40:20;;;;;;;16.33;7.38;;;;;;;23.67;55.30;98134.25;5050926;28;20085;-82
2022/10/10 10:43:23;;;;;;;10.07;7.00;;;;;;;23.27;56.47;98136.69;5081129;28;20540;-81
2022/10/10 10:46:15;;;;;;;8.32;6.30;;;;;;;22.91;57.88;98142.22;5087642;28;20021;-82
2022/10/10 10:49:00;;;;;;;9.32;6.63;;;;;;;22.50;58.84;98129.16;5054333;28;20039;-82
2022/10/10 10:51:32;;;;;;;14.45;6.60;;;;;;;22.44;58.69;98136.09;5070810;28;20043;-82
2022/10/10 10:54:09;;;;;;;9.50;7.00;;;;;;;22.48;59.25;98151.16;5077246;28;20023;-82
2022/10/10 10:56:35;;;;;;;12.10;7.28;;;;;;;23.13;58.38;98152.63;5073677;28;20032;-81
2022/10/10 10:59:45;;;;;;;18.80;6.97;;;;;;;23.39;56.83;98146.31;5084506;28;20027;-83
2022/10/10 11:02:25;;;;;;;12.45;7.10;;;;;;;23.81;55.43;98158.22;5044999;28;20029;-83
2022/10/10 11:05:03;;;;;;;13.98;6.93;;;;;;;24.31;54.11;98149.25;5083623;28;20108;-81
2022/10/10 11:07:54;;;;;;;13.40;7.55;;;;;;;24.16;54.03;98138.09;5080299;28;20035;-82
2022/10/10 11:10:23;;;;;;;19.13;6.57;;;;;;;23.94;54.48;98136.78;5049482;28;20077;-81
2022/10/10 11:12:59;;;;;;;13.57;7.10;;;;;;;24.70;53.35;98145.75;5087718;28;20040;-83
2022/10/10 11:15:31;;;;;;;15.18;6.85;;;;;;;25.26;52.11;98147.69;5080760;28;20527;-82
2022/10/10 11:18:18;;;;;;;14.52;8.05;;;;;;;25.17;51.74;98125.94;5065404;28;20027;-82
2022/10/10 11:21:02;;;;;;;11.15;7.20;;;;;;;24.75;53.07;98115.16;5085612;28;20035;-82
2022/10/10 11:23:33;;;;;;;10.77;7.05;;;;;;;24.16;53.05;98106.13;5080416;28;20028;-82
2022/10/10 11:26:02;;;;;;;12.68;7.28;;;;;;;24.45;53.08;98107.59;5065423;28;20089;-82
2022/10/10 11:28:43;;;;;;;10.90;6.95;;;;;;;23.77;54.05;98096.75;5090920;28;20471;-83